Time;durP1;ratioP1;P1;durP2;ratioP2;P2;SDS_P1;SDS_P2;PMS_P1;PMS_P2;Temp;Humidity;BMP_temperature;BMP_pressure;BME280_temperature;BME280_humidity;BME280_pressure;Samples;Min_cycle;Max_cycle;Signal;HPM_P1;HPM_P2
2020/12/18 00:00:25;;;;;;;21.33;10.30;;;;;;;5.64;100.00;102075.38;5199653;28;20029;-70
2020/12/18 00:02:57;;;;;;;16.98;11.00;;;;;;;5.62;100.00;102070.25;5198860;28;20023;-70
2020/12/18 00:05:32;;;;;;;22.98;11.85;;;;;;;5.61;100.00;102072.00;5195306;28;20026;-71
2020/12/18 00:08:03;;;;;;;22.88;11.80;;;;;;;5.61;100.00;102076.38;5195392;28;20018;-70
2020/12/18 00:10:35;;;;;;;17.02;11.85;;;;;;;5.63;100.00;102076.28;5197305;28;20048;-71
2020/12/18 00:13:07;;;;;;;18.67;11.30;;;;;;;5.62;100.00;102075.44;5198092;28;20376;-71
2020/12/18 00:15:38;;;;;;;19.92;11.77;;;;;;;5.59;100.00;102067.78;5190618;28;20053;-70
2020/12/18 00:18:09;;;;;;;19.05;11.73;;;;;;;5.59;100.00;102067.78;5196814;28;20029;-71
2020/12/18 00:20:41;;;;;;;19.88;11.68;;;;;;;5.62;100.00;102067.66;5198165;28;20018;-71
2020/12/18 00:23:12;;;;;;;19.70;11.90;;;;;;;5.56;100.00;102066.16;5196558;28;20283;-71
2020/12/18 00:25:47;;;;;;;22.02;12.00;;;;;;;5.63;100.00;102068.50;5196510;28;20041;-70
2020/12/18 00:28:19;;;;;;;21.48;11.98;;;;;;;5.60;100.00;102064.25;5197384;28;20108;-70
2020/12/18 00:30:50;;;;;;;19.58;12.13;;;;;;;5.64;100.00;102067.56;5196418;28;20113;-71
2020/12/18 00:33:21;;;;;;;27.65;12.43;;;;;;;5.62;100.00;102062.44;5198530;28;20053;-71
2020/12/18 00:35:52;;;;;;;21.60;11.15;;;;;;;5.61;100.00;102055.56;5197215;28;20182;-70
2020/12/18 00:38:24;;;;;;;19.90;12.10;;;;;;;5.63;100.00;102053.72;5198608;28;20030;-71
2020/12/18 00:40:55;;;;;;;23.92;11.75;;;;;;;5.64;100.00;102054.56;5197663;28;20085;-71
2020/12/18 00:43:26;;;;;;;21.88;12.13;;;;;;;5.61;100.00;102048.63;5196167;28;20027;-70
2020/12/18 00:45:57;;;;;;;20.88;11.35;;;;;;;5.61;100.00;102048.63;5197693;28;20074;-71
2020/12/18 00:48:29;;;;;;;21.17;12.13;;;;;;;5.60;100.00;102040.88;5198218;28;20022;-71
2020/12/18 00:51:00;;;;;;;18.35;10.93;;;;;;;5.55;100.00;102038.47;5197883;28;20033;-71
2020/12/18 00:53:34;;;;;;;18.17;11.18;;;;;;;5.54;100.00;102044.59;5197999;28;20041;-70
2020/12/18 00:56:12;;;;;;;19.30;10.90;;;;;;;5.52;100.00;102046.41;5177078;28;20023;-71
2020/12/18 00:58:44;;;;;;;19.58;11.25;;;;;;;5.55;100.00;102048.88;5196698;28;20082;-71
2020/12/18 01:01:15;;;;;;;21.42;10.98;;;;;;;5.53;100.00;102035.13;5203437;28;20021;-71
2020/12/18 01:03:46;;;;;;;21.15;11.20;;;;;;;5.55;100.00;102041.06;5217880;28;20033;-70
2020/12/18 01:06:17;;;;;;;21.38;11.70;;;;;;;5.48;100.00;102036.22;5202115;28;20030;-71
2020/12/18 01:08:49;;;;;;;19.23;11.73;;;;;;;5.53;100.00;102039.44;5196874;28;20474;-71
2020/12/18 01:11:20;;;;;;;21.58;10.63;;;;;;;5.48;100.00;102037.06;5197761;28;20491;-71
2020/12/18 01:13:51;;;;;;;20.48;11.55;;;;;;;5.50;100.00;102037.84;5197876;28;20054;-71
2020/12/18 01:16:25;;;;;;;21.00;11.40;;;;;;;5.52;100.00;102053.38;5196603;28;20514;-70
2020/12/18 01:18:57;;;;;;;20.45;11.15;;;;;;;5.52;100.00;102048.16;5197835;28;20026;-70
2020/12/18 01:21:28;;;;;;;22.45;10.93;;;;;;;5.48;100.00;102044.84;5180567;28;20042;-71
2020/12/18 01:23:59;;;;;;;19.75;10.93;;;;;;;5.49;100.00;102051.75;5197206;28;20037;-70
2020/12/18 01:26:31;;;;;;;18.38;10.02;;;;;;;5.52;100.00;102046.41;5197062;28;20027;-71
2020/12/18 01:29:03;;;;;;;17.83;9.90;;;;;;;5.49;100.00;102050.91;5180448;28;20085;-71
2020/12/18 01:31:34;;;;;;;18.13;10.40;;;;;;;5.45;100.00;102052.78;5197122;28;20480;-71
2020/12/18 01:34:05;;;;;;;16.55;10.15;;;;;;;5.46;100.00;102054.50;5197142;28;20055;-70
2020/12/18 01:36:37;;;;;;;18.40;10.32;;;;;;;5.46;100.00;102041.50;5179438;28;20018;-71
2020/12/18 01:39:08;;;;;;;19.42;10.07;;;;;;;5.44;100.00;102055.47;5197548;28;20041;-71
2020/12/18 01:41:39;;;;;;;23.27;11.32;;;;;;;5.43;100.00;102052.03;5197812;28;20034;-70
2020/12/18 01:44:10;;;;;;;22.00;9.82;;;;;;;5.40;100.00;102046.13;5199443;28;20369;-71
2020/12/18 01:46:42;;;;;;;20.77;9.82;;;;;;;5.39;100.00;102052.22;5201242;28;20066;-71
2020/12/18 01:49:14;;;;;;;16.52;9.50;;;;;;;5.40;100.00;102054.75;5201355;28;20034;-70
2020/12/18 01:51:48;;;;;;;23.67;9.77;;;;;;;5.37;100.00;102047.09;5200984;28;20082;-70
2020/12/18 01:54:21;;;;;;;18.15;9.68;;;;;;;5.33;100.00;102038.56;5201057;28;20022;-70
2020/12/18 01:56:53;;;;;;;20.40;9.40;;;;;;;5.33;100.00;102053.31;5198944;28;20042;-70
2020/12/18 01:59:25;;;;;;;25.42;10.32;;;;;;;5.31;100.00;102056.00;5201970;28;20101;-71
2020/12/18 02:01:56;;;;;;;20.50;9.60;;;;;;;5.33;100.00;102054.16;5202036;28;20030;-70
2020/12/18 02:04:27;;;;;;;15.30;9.65;;;;;;;5.31;100.00;102044.78;5199556;28;20030;-70
2020/12/18 02:07:00;;;;;;;21.40;9.68;;;;;;;5.29;100.00;102044.81;5200867;28;20441;-71
2020/12/18 02:09:34;;;;;;;21.15;10.30;;;;;;;5.26;100.00;102033.72;5178934;28;20027;-71
2020/12/18 02:12:06;;;;;;;22.10;10.80;;;;;;;5.26;100.00;102033.72;5199212;28;20492;-70
2020/12/18 02:14:37;;;;;;;20.80;10.68;;;;;;;5.26;100.00;102036.31;5195336;28;20077;-70
2020/12/18 02:17:08;;;;;;;21.45;9.57;;;;;;;5.26;100.00;102041.50;5200167;28;20029;-70
2020/12/18 02:19:49;;;;;;;17.10;9.52;;;;;;;5.24;100.00;102033.78;5200238;28;20509;-69
2020/12/18 02:22:23;;;;;;;16.63;9.18;;;;;;;5.22;100.00;102034.75;5199958;28;20038;-70
2020/12/18 02:25:06;;;;;;;18.73;10.27;;;;;;;5.23;100.00;102039.06;5199874;28;20026;-70
2020/12/18 02:27:39;;;;;;;20.90;9.63;;;;;;;5.19;100.00;102033.16;5200405;28;20023;-70
2020/12/18 02:30:13;;;;;;;21.13;10.30;;;;;;;5.22;100.00;102029.56;5199847;28;20476;-70
2020/12/18 02:32:44;;;;;;;20.85;9.27;;;;;;;5.17;100.00;102031.53;5200274;28;20034;-70
2020/12/18 02:35:15;;;;;;;19.20;8.80;;;;;;;5.14;100.00;102032.50;5200313;28;20034;-70
2020/12/18 02:37:47;;;;;;;19.80;9.32;;;;;;;5.10;100.00;102025.75;5198983;28;20031;-70
2020/12/18 02:40:18;;;;;;;19.92;10.00;;;;;;;5.12;100.00;102023.94;5200779;28;20026;-70
2020/12/18 02:42:49;;;;;;;17.50;9.57;;;;;;;5.07;100.00;102020.69;5182155;28;20046;-70
2020/12/18 02:45:21;;;;;;;15.45;9.15;;;;;;;5.06;100.00;102029.38;5199337;28;20027;-70
2020/12/18 02:47:52;;;;;;;18.00;9.25;;;;;;;5.06;100.00;102024.19;5200493;28;20037;-70
2020/12/18 02:50:24;;;;;;;20.45;9.00;;;;;;;5.03;100.00;102012.16;5199712;28;20435;-70
2020/12/18 02:52:56;;;;;;;19.17;9.30;;;;;;;5.03;100.00;102011.31;5198847;28;20034;-70
2020/12/18 02:55:27;;;;;;;18.90;8.90;;;;;;;5.03;100.00;102013.94;5199247;28;20044;-70
2020/12/18 02:57:58;;;;;;;17.73;8.80;;;;;;;5.02;100.00;102009.66;5189170;28;20113;-70
2020/12/18 03:00:29;;;;;;;16.30;9.60;;;;;;;5.04;100.00;102010.44;5182246;28;20053;-70
2020/12/18 03:03:02;;;;;;;15.40;8.98;;;;;;;4.99;100.00;102007.19;5196282;28;20030;-70
2020/12/18 03:05:33;;;;;;;23.55;9.10;;;;;;;4.99;100.00;102013.22;5197284;28;20535;-69
2020/12/18 03:08:05;;;;;;;15.80;9.15;;;;;;;4.97;100.00;102014.22;5197993;28;20093;-70
2020/12/18 03:10:36;;;;;;;23.25;9.27;;;;;;;4.96;100.00;102010.75;5197698;28;20484;-70
2020/12/18 03:13:07;;;;;;;17.23;8.93;;;;;;;4.97;100.00;102020.25;5198342;28;20502;-70
2020/12/18 03:15:38;;;;;;;19.77;8.10;;;;;;;4.94;100.00;102012.56;5198828;28;20069;-70
2020/12/18 03:18:10;;;;;;;16.90;8.10;;;;;;;4.97;100.00;102020.25;5192074;28;20026;-70
2020/12/18 03:20:41;;;;;;;19.58;8.98;;;;;;;4.96;100.00;102017.69;5198903;28;20022;-70
2020/12/18 03:23:12;;;;;;;17.08;8.75;;;;;;;4.93;100.00;102020.44;5189646;28;20105;-70
2020/12/18 03:25:43;;;;;;;20.75;9.23;;;;;;;4.95;100.00;102011.66;5196502;28;20033;-70
2020/12/18 03:28:15;;;;;;;15.45;8.77;;;;;;;4.96;100.00;102013.34;5198337;28;20041;-70
2020/12/18 03:30:46;;;;;;;16.65;8.50;;;;;;;4.89;100.00;101993.75;5197254;28;20022;-70
2020/12/18 03:33:17;;;;;;;12.10;7.47;;;;;;;4.98;100.00;102002.91;5218764;23;20054;-72
2020/12/18 03:35:49;;;;;;;16.60;7.65;;;;;;;4.96;100.00;102010.75;5186449;28;20038;-71
2020/12/18 03:38:20;;;;;;;16.48;7.45;;;;;;;4.97;100.00;102020.25;5177617;28;20035;-69
2020/12/18 03:40:51;;;;;;;14.45;8.38;;;;;;;4.98;100.00;102019.31;5178941;28;20026;-71
2020/12/18 03:43:23;;;;;;;18.77;8.40;;;;;;;4.96;100.00;102007.31;5183291;28;20089;-70
2020/12/18 03:45:54;;;;;;;18.23;8.73;;;;;;;5.00;100.00;102008.84;5180794;28;20019;-71
2020/12/18 03:48:26;;;;;;;15.63;7.97;;;;;;;4.99;100.00;102008.00;5179160;28;20085;-72
2020/12/18 03:50:57;;;;;;;23.05;8.63;;;;;;;5.00;100.00;102003.66;5177533;28;20033;-70
2020/12/18 03:53:28;;;;;;;23.52;8.43;;;;;;;5.00;100.00;102006.25;5181513;28;20029;-71
2020/12/18 03:55:59;;;;;;;17.48;7.00;;;;;;;5.01;100.00;102006.22;5189622;28;20014;-71
2020/12/18 03:58:31;;;;;;;18.58;7.43;;;;;;;5.02;100.00;102004.47;5178154;28;20081;-71
2020/12/18 04:01:02;;;;;;;16.40;7.57;;;;;;;5.07;100.00;102011.13;5180463;28;20034;-71
2020/12/18 04:03:33;;;;;;;17.90;7.70;;;;;;;5.05;100.00;102007.75;5183314;28;20034;-70
2020/12/18 04:06:04;;;;;;;19.60;8.05;;;;;;;5.08;100.00;102004.19;5181675;28;20027;-71
2020/12/18 04:08:36;;;;;;;15.32;7.72;;;;;;;4.98;100.00;101995.09;5178871;28;20027;-71
2020/12/18 04:11:08;;;;;;;17.67;8.15;;;;;;;5.04;100.00;102000.88;5177657;28;20039;-71
2020/12/18 04:13:40;;;;;;;13.63;7.45;;;;;;;4.99;100.00;101992.44;5176824;28;20027;-70
2020/12/18 04:16:11;;;;;;;13.65;7.45;;;;;;;5.05;100.00;102006.94;5169305;28;20515;-71
2020/12/18 04:18:43;;;;;;;12.98;6.93;;;;;;;5.01;100.00;102008.81;5177705;28;20073;-70
2020/12/18 04:21:14;;;;;;;22.00;6.88;;;;;;;5.03;100.00;102004.38;5178089;28;20392;-71
2020/12/18 04:23:46;;;;;;;21.70;8.50;;;;;;;5.03;100.00;101993.16;5178476;28;20022;-71
2020/12/18 04:26:17;;;;;;;14.05;6.88;;;;;;;5.04;100.00;101997.47;5176500;28;20031;-71
2020/12/18 04:28:48;;;;;;;14.93;6.85;;;;;;;5.02;100.00;101997.50;5196174;28;20103;-71
2020/12/18 04:31:20;;;;;;;14.65;6.72;;;;;;;5.04;100.00;101994.84;5193727;28;20054;-71
2020/12/18 04:33:51;;;;;;;10.70;5.68;;;;;;;5.02;100.00;101992.31;5177313;28;20043;-71
2020/12/18 04:36:22;;;;;;;13.82;6.55;;;;;;;5.01;100.00;101993.22;5182330;28;20031;-70
2020/12/18 04:38:54;;;;;;;15.25;6.85;;;;;;;4.99;100.00;101986.41;5177661;28;20519;-71
2020/12/18 04:41:26;;;;;;;14.82;5.88;;;;;;;4.96;100.00;101979.56;5178197;28;20492;-70
2020/12/18 04:43:57;;;;;;;15.13;6.28;;;;;;;5.05;100.00;101993.94;5178290;28;20062;-71
2020/12/18 04:46:30;;;;;;;14.60;6.60;;;;;;;5.05;100.00;101989.59;5176443;28;20515;-71
2020/12/18 04:49:02;;;;;;;15.30;6.10;;;;;;;5.08;100.00;101986.03;5176701;28;20066;-71
2020/12/18 04:51:40;;;;;;;12.85;5.70;;;;;;;5.06;100.00;101974.84;5176910;28;20026;-71
2020/12/18 04:54:12;;;;;;;11.95;6.32;;;;;;;5.05;100.00;101967.97;5192891;28;20022;-71
2020/12/18 04:56:49;;;;;;;13.45;6.50;;;;;;;5.06;100.00;101969.66;5180868;28;20045;-71
2020/12/18 04:59:23;;;;;;;14.93;5.68;;;;;;;5.10;100.00;101974.63;5177519;28;20035;-71
2020/12/18 05:01:55;;;;;;;12.18;5.88;;;;;;;5.09;100.00;101961.72;5172950;28;20034;-71
2020/12/18 05:04:29;;;;;;;12.85;6.07;;;;;;;5.11;100.00;101970.28;5175458;28;20341;-71
2020/12/18 05:07:00;;;;;;;11.52;5.60;;;;;;;5.13;100.00;101971.06;5175443;28;20109;-71
2020/12/18 05:09:31;;;;;;;10.88;5.63;;;;;;;5.13;100.00;101966.72;5178108;28;20479;-71
2020/12/18 05:12:06;;;;;;;12.02;4.80;;;;;;;5.08;100.00;101966.06;5176069;28;20030;-71
2020/12/18 05:14:38;;;;;;;13.57;5.25;;;;;;;5.13;100.00;101961.50;5168669;28;20082;-71
2020/12/18 05:17:11;;;;;;;13.27;5.40;;;;;;;5.17;100.00;101964.81;5178596;28;20491;-71
2020/12/18 05:19:43;;;;;;;14.05;5.40;;;;;;;5.18;100.00;101960.47;5184932;28;20035;-71
2020/12/18 05:22:14;;;;;;;14.07;4.77;;;;;;;5.18;100.00;101960.47;5202704;28;20069;-71
2020/12/18 05:24:46;;;;;;;14.80;4.97;;;;;;;5.17;100.00;101949.22;5185919;28;20726;-71
2020/12/18 05:27:18;;;;;;;15.75;5.75;;;;;;;5.21;100.00;101955.13;5196158;28;20610;-70
2020/12/18 05:29:50;;;;;;;14.18;6.28;;;;;;;5.21;100.00;101953.38;5181510;28;20408;-71
2020/12/18 05:32:22;;;;;;;13.20;5.30;;;;;;;5.21;100.00;101944.75;5180995;28;20026;-71
2020/12/18 05:34:57;;;;;;;13.43;5.28;;;;;;;5.24;100.00;101955.00;5186931;28;20173;-71
2020/12/18 05:37:39;;;;;;;15.35;5.78;;;;;;;5.24;100.00;101953.25;5184470;28;20069;-72
2020/12/18 05:40:10;;;;;;;13.18;4.70;;;;;;;5.22;100.00;101952.47;5180691;28;20096;-71
2020/12/18 05:42:43;;;;;;;15.18;4.90;;;;;;;5.25;100.00;101954.09;5182779;28;20237;-71
2020/12/18 05:45:17;;;;;;;14.85;5.07;;;;;;;5.22;100.00;101956.81;5184309;28;20488;-71
2020/12/18 05:47:52;;;;;;;;;;;;;;;5.27;100.00;101960.06;5181447;28;20110;-71
2020/12/18 05:50:28;;;;;;;13.43;5.10;;;;;;;5.23;100.00;101956.78;5181282;28;20378;-71
2020/12/18 05:53:01;;;;;;;11.38;5.00;;;;;;;5.25;100.00;101954.09;5185933;28;20098;-71
2020/12/18 05:55:38;;;;;;;11.10;4.78;;;;;;;5.22;100.00;101949.88;5180821;28;20034;-72
2020/12/18 05:58:13;;;;;;;16.40;5.40;;;;;;;5.24;100.00;101949.81;5192219;28;20031;-71
2020/12/18 06:00:44;;;;;;;12.95;5.13;;;;;;;5.19;100.00;101946.56;5182787;28;20031;-71
2020/12/18 06:03:19;;;;;;;14.82;5.07;;;;;;;5.20;100.00;101940.47;5181911;28;20029;-71
2020/12/18 06:05:53;;;;;;;13.35;5.28;;;;;;;5.21;100.00;101955.13;5185541;28;20065;-71
2020/12/18 06:08:25;;;;;;;;;;;;;;;5.24;100.00;101955.84;5191902;28;20031;-71
2020/12/18 06:10:58;;;;;;;13.90;4.53;;;;;;;5.21;100.00;101952.53;5179254;28;19922;-71
2020/12/18 06:13:30;;;;;;;;;;;;;;;5.22;100.00;101951.63;5180606;28;20022;-70
2020/12/18 06:16:02;;;;;;;10.65;4.20;;;;;;;5.16;100.00;101939.75;5183749;28;20339;-70
2020/12/18 06:18:42;;;;;;;11.60;5.25;;;;;;;5.15;100.00;101934.63;5178929;28;20042;-71
2020/12/18 06:21:14;;;;;;;15.60;5.20;;;;;;;5.22;100.00;101936.03;5180684;28;20035;-71
2020/12/18 06:23:48;;;;;;;9.68;4.78;;;;;;;5.19;100.00;101941.38;5180581;28;20027;-71
2020/12/18 06:26:20;;;;;;;10.10;4.85;;;;;;;5.17;100.00;101933.66;5193983;28;20031;-71
2020/12/18 06:28:52;;;;;;;14.15;4.22;;;;;;;5.19;100.00;101936.16;5187716;28;20023;-71
2020/12/18 06:31:26;;;;;;;11.27;4.30;;;;;;;5.22;100.00;101930.84;5173720;28;20082;-70
2020/12/18 06:34:03;;;;;;;18.58;5.80;;;;;;;5.21;100.00;101930.00;5188354;28;20492;-70
2020/12/18 06:36:46;;;;;;;16.45;5.18;;;;;;;5.24;100.00;101935.06;5190741;28;20109;-70
2020/12/18 06:39:33;;;;;;;10.32;4.80;;;;;;;5.24;100.00;101931.63;5173873;28;20102;-70
2020/12/18 06:42:09;;;;;;;13.15;4.50;;;;;;;5.23;100.00;101932.56;5177904;28;20053;-71
2020/12/18 06:44:41;;;;;;;8.80;4.93;;;;;;;5.26;100.00;101935.81;5177859;28;20065;-71
2020/12/18 06:47:14;;;;;;;14.47;4.87;;;;;;;5.24;100.00;101937.66;5178947;28;20034;-70
2020/12/18 06:50:02;;;;;;;10.97;4.77;;;;;;;5.28;100.00;101935.78;5179894;28;20030;-70
2020/12/18 06:52:49;;;;;;;12.90;5.40;;;;;;;5.27;100.00;101934.09;5172311;28;20027;-70
2020/12/18 06:55:26;;;;;;;14.00;5.30;;;;;;;5.18;100.00;101921.50;5171015;28;20396;-71
2020/12/18 06:58:09;;;;;;;15.52;4.45;;;;;;;5.28;100.00;101930.56;5164516;28;20027;-71
2020/12/18 07:00:58;;;;;;;10.10;4.65;;;;;;;5.29;100.00;101934.84;5179941;28;20038;-70
2020/12/18 07:03:48;;;;;;;15.45;5.85;;;;;;;5.31;100.00;101920.88;5199929;28;20025;-70
2020/12/18 07:06:27;;;;;;;16.00;5.53;;;;;;;5.35;100.00;101916.41;5190271;28;20038;-70
2020/12/18 07:08:58;;;;;;;14.82;5.38;;;;;;;5.36;100.00;101912.88;5179166;28;20392;-70
2020/12/18 07:11:30;;;;;;;11.65;5.20;;;;;;;5.38;100.00;101908.47;5178691;28;20032;-70
2020/12/18 07:14:02;;;;;;;13.27;5.20;;;;;;;5.42;100.00;101917.81;5169833;28;20039;-70
2020/12/18 07:16:34;;;;;;;11.23;4.95;;;;;;;5.44;100.00;101912.53;5174227;28;20023;-70
2020/12/18 07:19:07;;;;;;;11.38;4.80;;;;;;;5.47;100.00;101910.63;5178921;28;20555;-70
2020/12/18 07:21:40;;;;;;;11.80;5.20;;;;;;;5.42;100.00;101912.59;5170991;28;20058;-70
2020/12/18 07:24:12;;;;;;;10.00;5.35;;;;;;;5.38;100.00;101905.88;5164447;28;20031;-70
2020/12/18 07:26:43;;;;;;;10.10;4.60;;;;;;;5.49;100.00;101918.34;5173287;28;20030;-71
2020/12/18 07:29:15;;;;;;;12.48;5.18;;;;;;;5.45;100.00;101917.63;5172263;28;20023;-70
2020/12/18 07:31:46;;;;;;;15.27;5.05;;;;;;;5.49;100.00;101920.94;5171212;28;20038;-70
2020/12/18 07:34:18;;;;;;;13.90;5.32;;;;;;;5.42;100.00;101910.00;5176618;28;20803;-70
2020/12/18 07:36:49;;;;;;;13.27;5.05;;;;;;;5.55;100.00;101924.09;5177223;28;20030;-70
2020/12/18 07:39:21;;;;;;;13.70;5.38;;;;;;;5.61;100.00;101928.19;5171828;28;20026;-70
2020/12/18 07:42:01;;;;;;;11.40;5.40;;;;;;;5.64;100.00;101927.19;5172957;28;20039;-70
2020/12/18 07:44:32;;;;;;;14.30;5.40;;;;;;;5.68;100.00;101931.31;5175845;28;20062;-70
2020/12/18 07:47:03;;;;;;;15.93;5.20;;;;;;;5.73;100.00;101935.41;5160597;28;20133;-70
2020/12/18 07:49:35;;;;;;;15.43;5.95;;;;;;;5.76;100.00;101943.06;5170162;28;20027;-70
2020/12/18 07:52:07;;;;;;;15.80;5.70;;;;;;;5.78;100.00;101941.22;5175975;28;20508;-70
2020/12/18 07:54:38;;;;;;;14.95;5.90;;;;;;;5.85;100.00;101944.38;5176922;28;20019;-70
2020/12/18 07:57:12;;;;;;;17.00;6.05;;;;;;;5.93;100.00;101957.06;5176990;28;20089;-70
2020/12/18 07:59:43;;;;;;;12.68;5.38;;;;;;;5.94;100.00;101954.38;5168634;28;20101;-70
2020/12/18 08:02:22;;;;;;;9.70;5.65;;;;;;;5.99;100.00;101954.19;5164265;28;20026;-70
2020/12/18 08:04:58;;;;;;;12.82;5.45;;;;;;;5.97;100.00;101951.63;5188742;28;20038;-71
2020/12/18 08:07:30;;;;;;;11.55;5.22;;;;;;;6.02;100.00;101962.69;5176318;28;20039;-70
2020/12/18 08:10:03;;;;;;;10.68;5.32;;;;;;;6.04;100.00;101958.22;5177428;28;20057;-70
2020/12/18 08:12:35;;;;;;;12.05;6.05;;;;;;;6.09;100.00;101971.00;5176279;28;20118;-70
2020/12/18 08:15:10;;;;;;;19.63;7.03;;;;;;;6.16;100.00;101961.16;5174869;28;20057;-71
2020/12/18 08:17:41;;;;;;;11.77;6.00;;;;;;;6.16;100.00;101961.16;5172839;28;20538;-70
2020/12/18 08:20:14;;;;;;;15.52;6.18;;;;;;;6.20;100.00;101976.53;5172748;28;20027;-70
2020/12/18 08:22:47;;;;;;;11.05;6.95;;;;;;;6.20;100.00;101973.09;5171769;28;20432;-70
2020/12/18 08:25:19;;;;;;;13.80;6.85;;;;;;;6.26;100.00;101978.03;5176779;28;20052;-70
2020/12/18 08:27:53;;;;;;;14.80;6.72;;;;;;;6.27;100.00;101977.09;5169695;28;20187;-70
2020/12/18 08:30:27;;;;;;;15.63;6.82;;;;;;;6.24;100.00;101972.88;5174384;28;20030;-70
2020/12/18 08:32:59;;;;;;;9.52;6.03;;;;;;;6.29;100.00;101991.72;5181545;28;20077;-71
2020/12/18 08:35:30;;;;;;;13.93;6.32;;;;;;;6.32;100.00;101988.13;5174267;28;20492;-70
2020/12/18 08:38:09;;;;;;;17.58;7.22;;;;;;;6.34;100.00;101986.28;5170558;28;20034;-70
2020/12/18 08:40:43;;;;;;;16.73;7.47;;;;;;;6.38;100.00;101982.63;5178323;28;20042;-71
2020/12/18 08:43:19;;;;;;;;;;;;;;;6.44;100.00;101991.88;5176308;28;20065;-71
2020/12/18 08:45:51;;;;;;;14.23;6.70;;;;;;;6.42;100.00;101989.38;5183316;28;19925;-70
2020/12/18 08:48:26;;;;;;;16.25;6.72;;;;;;;6.42;100.00;101989.38;5174289;28;20031;-70
2020/12/18 08:51:01;;;;;;;14.40;6.72;;;;;;;6.51;100.00;102001.06;5174404;28;20543;-70
2020/12/18 08:53:35;;;;;;;16.67;6.45;;;;;;;6.57;100.00;101985.16;5179217;28;20130;-71
2020/12/18 08:56:06;;;;;;;14.98;7.03;;;;;;;6.56;100.00;101984.31;5179670;28;20042;-70
2020/12/18 08:58:37;;;;;;;12.15;6.47;;;;;;;6.59;100.00;101996.31;5180214;28;20027;-70
2020/12/18 09:01:21;;;;;;;14.02;6.30;;;;;;;6.61;100.00;101999.72;5182713;28;20037;-70
2020/12/18 09:03:52;;;;;;;13.20;6.80;;;;;;;6.61;100.00;102004.09;5172815;28;20046;-70
2020/12/18 09:06:24;;;;;;;15.05;6.40;;;;;;;6.57;100.00;101987.75;5176141;28;20074;-70
2020/12/18 09:09:05;;;;;;;13.00;6.47;;;;;;;6.58;100.00;101985.06;5181362;28;20085;-71
2020/12/18 09:11:36;;;;;;;16.35;6.38;;;;;;;6.60;100.00;101992.00;5177755;28;20398;-71
2020/12/18 09:14:25;;;;;;;16.08;7.40;;;;;;;6.57;100.00;101983.41;5175040;28;20102;-70
2020/12/18 09:16:59;;;;;;;13.05;7.20;;;;;;;6.57;100.00;101983.41;5178280;28;20038;-70
2020/12/18 09:19:33;;;;;;;12.95;6.97;;;;;;;6.56;100.00;101984.31;5174798;28;20034;-71
2020/12/18 09:22:05;;;;;;;14.38;7.57;;;;;;;6.46;100.00;101975.28;5175999;28;20030;-71
2020/12/18 09:24:36;;;;;;;15.00;7.50;;;;;;;6.55;100.00;101984.38;5178343;28;20026;-71
2020/12/18 09:27:12;;;;;;;19.05;8.00;;;;;;;6.56;100.00;101981.72;5179913;28;20061;-70
2020/12/18 09:29:56;;;;;;;13.15;8.60;;;;;;;6.52;100.00;101974.16;5178583;28;20023;-71
2020/12/18 09:32:28;;;;;;;14.40;8.27;;;;;;;6.55;100.00;101964.41;5179706;28;20041;-71
2020/12/18 09:34:59;;;;;;;16.75;7.43;;;;;;;6.60;100.00;101968.56;5201364;23;20061;-70
2020/12/18 09:37:30;;;;;;;17.75;7.72;;;;;;;6.64;100.00;101972.69;5196676;28;20045;-71
2020/12/18 09:40:02;;;;;;;15.15;6.80;;;;;;;6.68;100.00;101980.25;5201800;28;20021;-70
2020/12/18 09:42:33;;;;;;;14.57;6.32;;;;;;;6.70;100.00;101980.16;5197459;28;21043;-70
2020/12/18 09:45:04;;;;;;;10.43;6.38;;;;;;;6.74;100.00;101984.31;5197347;28;20027;-70
2020/12/18 09:47:36;;;;;;;11.80;6.25;;;;;;;6.76;100.00;101974.66;5200717;28;20072;-70
2020/12/18 09:50:07;;;;;;;11.90;5.80;;;;;;;6.82;100.00;101984.78;5203306;28;20037;-70
2020/12/18 09:52:38;;;;;;;10.57;5.88;;;;;;;6.83;100.00;101978.66;5198953;28;20022;-70
2020/12/18 09:55:09;;;;;;;10.60;5.93;;;;;;;6.82;100.00;101971.75;5198639;28;20034;-70
2020/12/18 09:57:41;;;;;;;12.40;6.25;;;;;;;6.91;100.00;101971.28;5202114;28;20026;-70
2020/12/18 10:00:12;;;;;;;12.43;6.03;;;;;;;6.97;100.00;101978.78;5197095;28;20041;-71
2020/12/18 10:02:44;;;;;;;12.48;5.47;;;;;;;7.00;100.00;101986.41;5198202;28;20032;-71
2020/12/18 10:05:15;;;;;;;11.40;5.55;;;;;;;7.02;100.00;101973.34;5200946;28;20423;-72
2020/12/18 10:07:46;;;;;;;11.82;5.70;;;;;;;7.07;100.00;101982.59;5199182;28;20104;-71
2020/12/18 10:10:18;;;;;;;9.93;5.15;;;;;;;7.19;100.00;101972.44;5199325;28;20018;-71
2020/12/18 10:12:49;;;;;;;11.43;5.22;;;;;;;7.26;100.00;101974.66;5198308;28;20031;-72
2020/12/18 10:15:21;;;;;;;10.13;5.03;;;;;;;7.37;100.00;101981.91;5196621;28;20101;-71
2020/12/18 10:17:52;;;;;;;11.65;4.82;;;;;;;7.40;100.00;101970.47;5202861;28;20029;-71
2020/12/18 10:20:23;;;;;;;11.10;5.13;;;;;;;7.48;100.00;101976.97;5198783;28;20387;-72
2020/12/18 10:22:55;;;;;;;13.65;4.18;;;;;;;7.53;100.00;101974.94;5205887;28;20291;-72
2020/12/18 10:25:26;;;;;;;11.18;4.70;;;;;;;7.66;99.86;101982.13;5202039;28;20030;-72
2020/12/18 10:27:57;;;;;;;12.82;4.85;;;;;;;7.68;99.87;101968.03;5199952;28;20026;-71
2020/12/18 10:30:29;;;;;;;16.02;4.43;;;;;;;7.75;99.25;101964.19;5199335;28;20030;-75
2020/12/18 10:33:00;;;;;;;11.05;4.05;;;;;;;7.80;98.99;101964.78;5207300;28;20038;-72
2020/12/18 10:35:32;;;;;;;11.15;4.07;;;;;;;7.88;98.44;101958.28;5204620;28;20050;-72
2020/12/18 10:38:03;;;;;;;10.77;3.70;;;;;;;7.93;97.93;101957.13;5204443;28;20030;-72
2020/12/18 10:40:34;;;;;;;9.93;3.65;;;;;;;8.03;97.15;101957.41;5199879;28;20037;-72
2020/12/18 10:43:05;;;;;;;9.05;4.03;;;;;;;8.04;97.33;101949.53;5206221;28;20041;-72
2020/12/18 10:45:37;;;;;;;11.63;3.92;;;;;;;8.11;96.45;101938.75;5204157;28;20330;-72
2020/12/18 10:48:09;;;;;;;13.80;4.00;;;;;;;8.16;96.93;101942.75;5199693;28;20026;-72
2020/12/18 10:50:40;;;;;;;10.57;3.70;;;;;;;8.19;96.27;101931.31;5202636;28;20025;-72
2020/12/18 10:53:11;;;;;;;11.50;3.50;;;;;;;8.29;95.94;101929.84;5198979;28;20422;-72
2020/12/18 10:55:42;;;;;;;9.27;3.67;;;;;;;8.39;94.83;101928.41;5198434;28;20483;-72
2020/12/18 10:58:14;;;;;;;8.10;2.95;;;;;;;8.42;95.07;101919.56;5205699;28;20030;-72
2020/12/18 11:00:45;;;;;;;9.82;3.45;;;;;;;8.44;94.32;101902.84;5207508;28;20489;-72
2020/12/18 11:03:16;;;;;;;11.98;3.38;;;;;;;8.48;93.82;101906.97;5206112;28;20026;-71
2020/12/18 11:05:47;;;;;;;8.10;3.03;;;;;;;8.53;94.37;101910.16;5203212;28;20025;-72
2020/12/18 11:08:18;;;;;;;11.27;3.08;;;;;;;8.58;92.88;101903.84;5200632;28;20026;-71
2020/12/18 11:10:50;;;;;;;9.23;3.17;;;;;;;8.63;92.91;101900.00;5204827;28;20027;-71
2020/12/18 11:13:21;;;;;;;8.35;2.67;;;;;;;8.66;92.71;101896.38;5207221;28;20125;-72
2020/12/18 11:15:52;;;;;;;10.77;2.65;;;;;;;8.75;91.20;101895.81;5198254;28;20030;-71
2020/12/18 11:18:24;;;;;;;9.65;2.88;;;;;;;8.84;91.48;101903.09;5205226;28;20526;-72
2020/12/18 11:20:55;;;;;;;8.73;3.15;;;;;;;8.83;91.01;101898.81;5201562;28;20025;-72
2020/12/18 11:23:26;;;;;;;8.55;2.72;;;;;;;8.82;92.22;101894.50;5198995;28;20022;-72
2020/12/18 11:25:58;;;;;;;9.30;2.90;;;;;;;8.94;89.72;101893.78;5206709;28;20026;-71
2020/12/18 11:28:29;;;;;;;6.63;2.42;;;;;;;9.04;89.08;101894.03;5200659;28;20475;-69
2020/12/18 11:31:01;;;;;;;7.43;2.80;;;;;;;9.08;88.83;101889.47;5196588;28;20026;-69
2020/12/18 11:33:32;;;;;;;8.43;2.42;;;;;;;9.09;89.54;101885.91;5199459;28;20108;-69
2020/12/18 11:36:04;;;;;;;9.10;2.25;;;;;;;9.16;87.24;101871.53;5202343;28;20026;-70
2020/12/18 11:38:35;;;;;;;10.38;2.90;;;;;;;9.23;87.68;101857.97;5205607;28;20027;-70
2020/12/18 11:41:06;;;;;;;6.30;2.65;;;;;;;9.22;86.83;101843.22;5195842;28;20022;-71
2020/12/18 11:43:38;;;;;;;7.13;3.00;;;;;;;9.24;87.66;101841.38;5196116;28;20574;-70